Time;durP1;ratioP1;P1;durP2;ratioP2;P2;SDS_P1;SDS_P2;PMS_P1;PMS_P2;Temp;Humidity;BMP_temperature;BMP_pressure;BME280_temperature;BME280_humidity;BME280_pressure;Samples;Min_cycle;Max_cycle;Signal;HPM_P1;HPM_P2
2023/05/13 00:01:09;;;;;;;6.93;3.95;;;;;;;18.20;44.15;100243.09;5033122;28;20088;-80
2023/05/13 00:03:36;;;;;;;8.13;3.60;;;;;;;18.19;44.16;100244.06;5033275;28;20136;-80
2023/05/13 00:06:03;;;;;;;5.18;3.70;;;;;;;18.17;44.16;100246.03;5040929;28;20428;-79
2023/05/13 00:08:30;;;;;;;6.18;4.32;;;;;;;18.16;43.92;100241.69;5052670;28;20060;-79
2023/05/13 00:10:57;;;;;;;4.93;3.42;;;;;;;18.12;43.90;100243.72;5051657;28;20059;-79
2023/05/13 00:13:23;;;;;;;6.65;4.22;;;;;;;18.10;44.18;100245.69;5052694;28;20049;-80
2023/05/13 00:15:50;;;;;;;6.80;4.35;;;;;;;18.08;44.11;100244.94;5052243;28;20103;-79
2023/05/13 00:18:17;;;;;;;7.93;4.40;;;;;;;18.05;44.19;100247.84;5052367;28;20524;-79
2023/05/13 00:20:43;;;;;;;9.18;4.13;;;;;;;18.03;43.99;100244.44;5052665;28;20045;-79
2023/05/13 00:23:10;;;;;;;6.05;4.47;;;;;;;18.02;44.30;100250.75;5051361;28;20061;-79
2023/05/13 00:25:37;;;;;;;6.45;3.90;;;;;;;17.98;44.27;100244.81;5052385;28;20469;-79
2023/05/13 00:28:04;;;;;;;6.55;3.95;;;;;;;17.97;44.31;100253.78;5093813;22;20081;-78
2023/05/13 00:30:30;;;;;;;11.38;4.53;;;;;;;17.93;44.52;100247.00;5050986;28;20072;-82
2023/05/13 00:32:57;;;;;;;6.78;4.22;;;;;;;17.91;44.55;100243.63;5051821;28;20048;-81
2023/05/13 00:35:24;;;;;;;4.70;4.28;;;;;;;17.89;45.26;100245.56;5050666;28;20079;-80
2023/05/13 00:37:50;;;;;;;6.45;4.50;;;;;;;17.86;44.96;100251.16;5031863;28;20115;-82
2023/05/13 00:40:22;;;;;;;5.55;4.53;;;;;;;17.81;45.25;100247.03;5044021;28;20045;-82
2023/05/13 00:42:50;;;;;;;5.55;4.57;;;;;;;17.80;44.78;100242.66;5052271;28;20075;-81
2023/05/13 00:45:17;;;;;;;5.72;4.22;;;;;;;17.77;45.02;100247.38;5034008;28;20080;-80
2023/05/13 00:47:44;;;;;;;6.10;4.78;;;;;;;17.72;44.95;100245.09;5051748;28;20135;-80
2023/05/13 00:50:12;;;;;;;8.63;5.07;;;;;;;17.67;45.08;100245.47;5052693;28;20049;-81
2023/05/13 00:52:40;;;;;;;6.47;4.70;;;;;;;17.63;44.96;100249.34;5050897;28;20056;-80
2023/05/13 00:55:08;;;;;;;7.20;4.50;;;;;;;17.61;44.92;100247.75;5051550;28;20485;-80
2023/05/13 00:57:36;;;;;;;4.78;4.25;;;;;;;17.58;45.19;100251.53;5017127;28;20140;-80
2023/05/13 01:00:04;;;;;;;7.72;4.60;;;;;;;17.56;45.63;100245.44;5031849;28;20049;-81
2023/05/13 01:02:37;;;;;;;7.18;5.10;;;;;;;17.54;45.16;100248.22;5032387;28;20049;-80
2023/05/13 01:05:37;;;;;;;5.70;4.38;;;;;;;17.50;45.42;100252.13;5031481;28;20148;-81
2023/05/13 01:08:35;;;;;;;6.15;4.40;;;;;;;17.43;45.48;100253.56;4960312;28;20060;-80
2023/05/13 01:11:02;;;;;;;6.63;4.97;;;;;;;17.44;45.38;100257.91;5032197;28;20123;-80
2023/05/13 01:13:38;;;;;;;7.57;4.57;;;;;;;17.37;46.15;100256.69;5032071;28;20132;-82
2023/05/13 01:16:05;;;;;;;7.35;5.60;;;;;;;17.36;45.43;100250.53;5031512;28;20067;-81
2023/05/13 01:18:51;;;;;;;8.38;4.97;;;;;;;17.30;45.74;100251.00;5031356;28;20049;-80
2023/05/13 01:21:25;;;;;;;7.70;5.28;;;;;;;17.29;46.31;100252.84;5014233;28;20045;-81
2023/05/13 01:23:52;;;;;;;7.30;4.53;;;;;;;17.29;45.76;100244.84;5014376;28;20140;-80
2023/05/13 01:26:21;;;;;;;8.30;5.10;;;;;;;17.26;45.81;100255.72;5031084;28;20431;-81
2023/05/13 01:28:48;;;;;;;6.25;4.63;;;;;;;17.22;45.49;100254.25;5045200;28;20048;-80
2023/05/13 01:31:15;;;;;;;7.07;4.78;;;;;;;17.18;45.65;100252.81;5051285;28;20061;-81
2023/05/13 01:33:42;;;;;;;5.38;4.65;;;;;;;17.14;45.79;100252.22;5033785;28;20084;-79
2023/05/13 01:36:09;;;;;;;10.27;5.13;;;;;;;17.10;45.75;100257.88;5050868;28;20132;-80
2023/05/13 01:38:36;;;;;;;9.50;5.57;;;;;;;17.03;46.04;100255.66;5050909;28;20063;-81
2023/05/13 01:41:03;;;;;;;5.82;4.97;;;;;;;16.99;45.83;100258.66;5051110;28;20040;-79
2023/05/13 01:43:30;;;;;;;6.15;5.10;;;;;;;16.92;46.07;100252.97;5033819;28;20045;-81
2023/05/13 01:45:59;;;;;;;8.98;4.35;;;;;;;16.87;46.15;100255.97;5050580;28;20203;-81
2023/05/13 01:48:26;;;;;;;6.63;5.22;;;;;;;16.81;46.18;100251.13;5050830;28;20063;-80
2023/05/13 01:50:53;;;;;;;8.27;5.03;;;;;;;16.76;46.19;100261.25;5050848;28;20564;-81
2023/05/13 01:53:20;;;;;;;6.22;5.20;;;;;;;16.72;46.68;100258.00;5033356;28;20085;-80
2023/05/13 01:55:46;;;;;;;6.70;4.97;;;;;;;16.67;46.60;100258.31;5032758;28;20059;-81
2023/05/13 01:58:13;;;;;;;8.20;5.82;;;;;;;16.62;46.76;100257.81;5032916;28;20493;-80
2023/05/13 02:00:40;;;;;;;7.72;5.25;;;;;;;16.59;46.71;100259.88;5050955;28;20144;-81
2023/05/13 02:03:06;;;;;;;6.63;5.20;;;;;;;16.56;46.56;100262.75;5050983;28;20111;-80
2023/05/13 02:05:33;;;;;;;6.97;5.80;;;;;;;16.53;47.09;100259.34;5050320;28;20140;-81
2023/05/13 02:08:00;;;;;;;7.80;5.65;;;;;;;16.51;47.05;100265.72;5050357;28;20130;-79
2023/05/13 02:10:26;;;;;;;11.35;5.93;;;;;;;16.48;47.19;100258.84;5050671;28;20049;-80
2023/05/13 02:12:53;;;;;;;7.78;5.80;;;;;;;16.46;47.23;100258.13;5050688;28;20076;-79
2023/05/13 02:15:19;;;;;;;7.05;5.70;;;;;;;16.45;47.49;100255.56;5050298;28;20144;-80
2023/05/13 02:17:46;;;;;;;7.95;6.03;;;;;;;16.45;47.72;100255.56;5050142;28;20067;-79
2023/05/13 02:20:13;;;;;;;6.15;5.47;;;;;;;16.44;47.57;100256.53;5032920;28;20048;-80
2023/05/13 02:22:40;;;;;;;8.63;4.97;;;;;;;16.45;47.47;100255.56;5050489;28;20106;-79
2023/05/13 02:25:07;;;;;;;7.50;5.75;;;;;;;16.44;47.40;100254.72;5032374;28;20056;-80
2023/05/13 02:27:33;;;;;;;11.70;5.45;;;;;;;16.46;47.25;100260.78;5049805;28;20063;-80
2023/05/13 02:30:00;;;;;;;9.27;5.85;;;;;;;16.44;47.28;100254.72;5050286;28;20413;-79
2023/05/13 02:32:26;;;;;;;7.90;4.97;;;;;;;16.44;47.41;100260.03;5032748;28;20088;-80
2023/05/13 02:34:53;;;;;;;5.70;5.00;;;;;;;16.44;47.40;100256.53;5050076;28;20088;-82
2023/05/13 02:37:20;;;;;;;8.98;5.72;;;;;;;16.41;47.48;100255.78;5032454;28;20051;-80
2023/05/13 02:39:46;;;;;;;7.82;5.95;;;;;;;16.39;47.48;100254.22;5050282;28;20490;-80
2023/05/13 02:42:13;;;;;;;8.90;6.20;;;;;;;16.38;47.67;100255.19;5050148;28;20136;-81
2023/05/13 02:44:40;;;;;;;8.32;6.30;;;;;;;16.36;47.71;100251.78;5050494;28;20057;-80
2023/05/13 02:47:06;;;;;;;7.40;5.90;;;;;;;16.34;47.86;100248.38;5050036;28;20123;-80
2023/05/13 02:49:33;;;;;;;9.20;5.85;;;;;;;16.32;47.62;100245.84;5050453;28;20118;-80
2023/05/13 02:51:59;;;;;;;9.02;6.70;;;;;;;16.30;47.97;100244.25;5032290;28;20063;-80
2023/05/13 02:54:27;;;;;;;8.45;6.13;;;;;;;16.28;47.72;100244.38;5032695;28;20127;-81
2023/05/13 02:56:53;;;;;;;8.25;6.07;;;;;;;16.25;47.78;100245.44;5031725;28;20140;-81
2023/05/13 02:59:20;;;;;;;9.00;6.07;;;;;;;16.24;47.98;100245.56;5032272;28;20417;-81
2023/05/13 03:01:46;;;;;;;8.20;6.30;;;;;;;16.22;48.09;100244.84;5050274;28;20408;-80
2023/05/13 03:04:13;;;;;;;9.48;6.28;;;;;;;16.19;48.11;100243.25;5032337;28;20044;-80
2023/05/13 03:06:40;;;;;;;8.52;6.05;;;;;;;16.18;48.05;100249.50;5049300;28;20045;-81
2023/05/13 03:09:06;;;;;;;9.95;6.32;;;;;;;16.14;48.27;100240.91;5049981;28;20483;-81
2023/05/13 03:11:33;;;;;;;13.98;6.22;;;;;;;16.13;48.46;100241.03;5050024;28;20540;-81
2023/05/13 03:14:02;;;;;;;10.77;6.35;;;;;;;16.13;48.20;100243.69;5032962;28;20053;-79
2023/05/13 03:16:28;;;;;;;10.77;5.88;;;;;;;16.11;48.08;100241.13;5051057;28;20161;-79
2023/05/13 03:18:55;;;;;;;7.88;5.55;;;;;;;16.10;48.00;100239.44;5053388;28;20052;-81
2023/05/13 03:21:21;;;;;;;7.70;6.28;;;;;;;16.09;48.08;100239.56;5035889;28;20390;-79
2023/05/13 03:23:48;;;;;;;7.93;5.80;;;;;;;16.06;48.17;100235.31;5036124;28;20437;-79
2023/05/13 03:26:15;;;;;;;6.93;5.70;;;;;;;16.05;48.33;100240.72;5053369;28;20103;-80
2023/05/13 03:28:42;;;;;;;8.85;6.65;;;;;;;16.04;48.26;100239.91;5035686;28;20382;-79
2023/05/13 03:31:08;;;;;;;9.15;6.47;;;;;;;16.02;48.44;100244.47;5053850;28;20404;-79
2023/05/13 03:33:35;;;;;;;7.25;5.80;;;;;;;16.01;48.34;100254.22;5053540;28;20102;-79
2023/05/13 03:36:02;;;;;;;9.65;6.60;;;;;;;15.99;48.46;100247.34;5053228;28;20098;-82
2023/05/13 03:38:28;;;;;;;9.15;6.30;;;;;;;15.98;48.31;100253.59;5035358;28;20423;-80
2023/05/13 03:40:55;;;;;;;11.60;6.30;;;;;;;15.95;48.45;100256.47;5035918;28;20092;-79
2023/05/13 03:43:21;;;;;;;8.98;6.25;;;;;;;15.92;48.45;100256.69;5035827;28;20128;-80
2023/05/13 03:45:49;;;;;;;10.15;6.82;;;;;;;15.89;48.51;100250.63;5052891;28;20487;-79
2023/05/13 03:48:16;;;;;;;9.23;6.40;;;;;;;15.85;48.57;100256.28;5052968;28;20041;-79
2023/05/13 03:50:43;;;;;;;9.05;6.35;;;;;;;15.82;48.68;100253.81;5035785;28;20061;-80
2023/05/13 03:53:10;;;;;;;7.47;6.50;;;;;;;15.79;48.69;100256.69;5052929;28;20053;-80
2023/05/13 03:55:37;;;;;;;8.23;6.53;;;;;;;15.75;48.65;100253.41;5035318;28;20049;-80
2023/05/13 03:58:14;;;;;;;7.63;6.75;;;;;;;15.68;49.26;100258.31;5052772;28;20485;-79
2023/05/13 04:00:42;;;;;;;7.63;6.47;;;;;;;15.68;48.95;100258.31;5053433;28;20079;-79
2023/05/13 04:03:09;;;;;;;7.07;5.80;;;;;;;15.64;48.99;100259.47;5035580;28;20597;-80
2023/05/13 04:05:36;;;;;;;8.68;6.47;;;;;;;15.61;49.26;100257.03;5034873;28;20059;-80
2023/05/13 04:08:02;;;;;;;12.82;7.03;;;;;;;15.59;49.18;100259.78;5035105;28;20131;-79
2023/05/13 04:10:29;;;;;;;7.22;6.47;;;;;;;15.58;49.27;100263.41;5035367;28;20076;-79
2023/05/13 04:12:55;;;;;;;9.93;6.35;;;;;;;15.57;49.34;100260.88;5052811;28;20045;-81
2023/05/13 04:15:22;;;;;;;9.35;6.70;;;;;;;15.57;49.29;100268.81;5034674;28;20053;-80
2023/05/13 04:17:49;;;;;;;11.85;6.68;;;;;;;15.57;49.30;100263.53;5034733;28;20140;-79
2023/05/13 04:20:16;;;;;;;7.88;6.43;;;;;;;15.55;49.34;100268.94;5052862;28;20489;-79
2023/05/13 04:22:43;;;;;;;8.07;6.30;;;;;;;15.56;49.23;100272.44;5035123;28;20049;-81
2023/05/13 04:25:10;;;;;;;7.13;5.82;;;;;;;15.56;49.35;100261.81;5052438;28;20497;-79
2023/05/13 04:27:36;;;;;;;8.50;6.35;;;;;;;15.56;49.43;100272.44;5033344;28;20576;-80
2023/05/13 04:30:03;;;;;;;7.63;6.82;;;;;;;15.57;49.64;100272.34;5034763;28;20045;-80
2023/05/13 04:32:30;;;;;;;6.82;6.13;;;;;;;15.57;49.76;100271.47;5034736;28;20136;-81
2023/05/13 04:34:57;;;;;;;13.85;6.45;;;;;;;15.56;49.51;100268.00;5052100;28;20101;-79
2023/05/13 04:37:24;;;;;;;9.32;6.55;;;;;;;15.57;49.47;100271.47;5051862;28;20454;-81
2023/05/13 04:39:50;;;;;;;8.95;6.55;;;;;;;15.56;49.69;100273.31;5052459;28;20061;-79
2023/05/13 04:42:17;;;;;;;9.18;6.43;;;;;;;15.56;49.53;100278.59;5052559;28;20068;-81
2023/05/13 04:44:44;;;;;;;7.40;6.40;;;;;;;15.55;49.77;100282.19;5052068;28;20126;-80
2023/05/13 04:47:10;;;;;;;9.90;6.55;;;;;;;15.56;49.78;100277.75;5051531;28;20099;-81
2023/05/13 04:49:37;;;;;;;7.85;6.22;;;;;;;15.55;49.74;100279.53;5034514;28;20110;-79
2023/05/13 04:52:05;;;;;;;7.72;5.97;;;;;;;15.55;49.73;100289.31;5034636;28;20049;-80
2023/05/13 04:54:34;;;;;;;8.75;6.85;;;;;;;15.56;49.95;100286.56;5052076;28;20136;-81
2023/05/13 04:57:01;;;;;;;13.60;6.90;;;;;;;15.57;49.82;100287.41;5051227;28;20630;-81
2023/05/13 04:59:28;;;;;;;8.77;6.75;;;;;;;15.57;49.82;100287.41;5051946;28;20056;-82
2023/05/13 05:01:54;;;;;;;8.55;7.35;;;;;;;15.57;49.96;100282.94;5051774;28;20476;-81
2023/05/13 05:04:21;;;;;;;9.05;6.80;;;;;;;15.58;50.04;100291.75;5034293;28;20051;-80
2023/05/13 05:06:48;;;;;;;8.05;6.55;;;;;;;15.57;49.99;100293.56;5051087;28;20099;-79
2023/05/13 05:09:14;;;;;;;11.05;6.60;;;;;;;15.58;49.84;100299.69;5051943;28;20119;-80
2023/05/13 05:11:41;;;;;;;8.00;6.55;;;;;;;15.58;50.00;100300.56;5034252;28;20494;-80
2023/05/13 05:14:08;;;;;;;9.57;7.18;;;;;;;15.60;50.24;100297.81;5052023;28;20080;-79
2023/05/13 05:16:34;;;;;;;7.60;6.57;;;;;;;15.59;50.39;100304.91;5051104;28;20151;-80
2023/05/13 05:19:01;;;;;;;12.80;7.00;;;;;;;15.62;50.33;100312.66;5051868;28;20091;-81
2023/05/13 05:21:27;;;;;;;10.98;6.95;;;;;;;15.65;50.37;100306.28;5033675;28;20481;-80
2023/05/13 05:23:54;;;;;;;8.40;7.10;;;;;;;15.67;50.33;100309.69;5033718;28;20593;-80
2023/05/13 05:26:21;;;;;;;9.57;7.43;;;;;;;15.71;50.19;100305.03;5050915;28;20044;-79
2023/05/13 05:28:47;;;;;;;7.47;6.63;;;;;;;15.74;50.27;100307.47;5033467;28;20064;-79
2023/05/13 05:31:14;;;;;;;9.57;6.20;;;;;;;15.76;49.97;100313.50;5033723;28;20519;-80
2023/05/13 05:33:41;;;;;;;7.72;6.93;;;;;;;15.77;50.25;100305.44;5033876;28;20063;-81
2023/05/13 05:36:07;;;;;;;8.63;6.35;;;;;;;15.80;50.21;100309.69;5050635;28;20430;-81
2023/05/13 05:38:34;;;;;;;10.25;7.07;;;;;;;15.84;50.34;100308.50;5050394;28;20147;-81
2023/05/13 05:41:01;;;;;;;10.45;6.60;;;;;;;15.86;50.08;100308.41;5050784;28;20128;-79
2023/05/13 05:43:28;;;;;;;8.10;6.75;;;;;;;15.90;50.17;100312.53;5033187;28;20045;-79
2023/05/13 05:45:54;;;;;;;8.73;7.25;;;;;;;15.92;50.32;100310.59;5050527;28;20171;-80
2023/05/13 05:48:21;;;;;;;9.82;7.25;;;;;;;15.95;50.40;100309.56;5032648;28;20059;-80
2023/05/13 05:50:48;;;;;;;9.13;7.18;;;;;;;15.96;50.58;100304.16;5051050;28;20472;-79
2023/05/13 05:53:14;;;;;;;10.73;7.03;;;;;;;15.98;50.55;100307.56;5050998;28;20049;-82
2023/05/13 05:55:41;;;;;;;8.13;6.68;;;;;;;16.00;50.38;100310.13;5050348;28;20095;-81
2023/05/13 05:58:09;;;;;;;9.00;6.65;;;;;;;16.01;50.76;100309.16;5032547;28;20114;-80
2023/05/13 06:00:35;;;;;;;7.70;6.82;;;;;;;16.03;50.76;100307.22;5050817;28;20099;-80
2023/05/13 06:03:02;;;;;;;9.98;6.97;;;;;;;16.06;50.55;100316.78;5032945;28;20053;-79
2023/05/13 06:05:29;;;;;;;15.10;7.15;;;;;;;16.08;50.93;100306.91;5050448;28;20071;-80
2023/05/13 06:07:55;;;;;;;9.80;6.78;;;;;;;16.12;50.61;100311.88;5032255;28;20052;-82
2023/05/13 06:10:22;;;;;;;8.40;6.88;;;;;;;16.17;50.70;100316.88;5050760;28;20468;-80
2023/05/13 06:12:50;;;;;;;10.52;7.35;;;;;;;16.21;51.18;100318.34;5033133;28;20119;-79
2023/05/13 06:15:16;;;;;;;9.50;6.80;;;;;;;16.25;51.18;100313.66;5050363;28;20099;-80
2023/05/13 06:17:43;;;;;;;10.20;7.25;;;;;;;16.29;50.78;100309.81;5032661;28;20052;-80
2023/05/13 06:20:10;;;;;;;11.18;7.03;;;;;;;16.34;50.73;100314.81;5032936;28;20049;-80
2023/05/13 06:22:37;;;;;;;12.10;6.65;;;;;;;16.39;50.68;100315.31;5050175;28;20049;-80
2023/05/13 06:25:04;;;;;;;9.70;6.80;;;;;;;16.44;50.36;100312.34;5049622;28;20081;-79
2023/05/13 06:30:00;;;;;;;7.13;5.97;;;;;;;16.53;50.26;100311.66;5008969;22;20053;-80
2023/05/13 06:32:26;;;;;;;9.68;5.93;;;;;;;16.58;49.99;100311.31;5050207;28;20049;-80
2023/05/13 06:34:53;;;;;;;8.50;6.20;;;;;;;16.60;50.05;100315.53;5049941;28;20057;-80
2023/05/13 06:37:21;;;;;;;8.50;6.13;;;;;;;16.65;50.07;100317.88;5049243;28;20444;-80
2023/05/13 06:39:48;;;;;;;9.95;6.30;;;;;;;16.69;50.35;100316.69;5050165;28;20721;-79
2023/05/13 06:42:15;;;;;;;8.82;6.18;;;;;;;16.73;50.60;100318.16;5050335;28;20092;-79
2023/05/13 06:44:41;;;;;;;7.13;6.10;;;;;;;16.79;50.45;100316.84;5050180;28;20497;-79
2023/05/13 06:47:10;;;;;;;7.85;6.28;;;;;;;16.85;50.40;100315.56;5049789;28;20052;-80
2023/05/13 06:49:37;;;;;;;10.30;6.50;;;;;;;16.91;50.33;100315.09;5050637;28;20057;-79
2023/05/13 06:52:04;;;;;;;9.65;6.75;;;;;;;16.96;50.50;100317.41;5052690;28;20056;-80
2023/05/13 06:54:30;;;;;;;7.63;6.15;;;;;;;17.02;50.42;100320.47;5054235;28;20080;-79
2023/05/13 06:56:57;;;;;;;8.45;6.28;;;;;;;17.06;50.40;100319.28;5053884;28;20060;-80
2023/05/13 06:59:24;;;;;;;8.80;6.47;;;;;;;17.12;50.62;100320.63;5054190;28;20536;-79
2023/05/13 07:01:50;;;;;;;7.55;6.32;;;;;;;17.19;50.53;100318.34;5054392;28;20060;-79
2023/05/13 07:04:17;;;;;;;8.18;6.55;;;;;;;17.24;50.58;100321.53;5054232;28;20045;-80
2023/05/13 07:06:43;;;;;;;7.55;6.75;;;;;;;17.31;50.61;100317.41;5053340;28;20049;-80
2023/05/13 07:09:10;;;;;;;9.52;6.40;;;;;;;17.36;50.78;100322.38;5054296;28;20634;-79
2023/05/13 07:11:36;;;;;;;10.65;6.70;;;;;;;17.42;50.77;100319.25;5054051;28;20535;-80
2023/05/13 07:14:03;;;;;;;7.57;6.78;;;;;;;17.48;50.46;100320.59;5053937;28;20044;-79
2023/05/13 07:16:29;;;;;;;8.13;6.38;;;;;;;17.53;50.66;100320.25;5053510;28;20132;-80
2023/05/13 07:18:56;;;;;;;8.63;6.35;;;;;;;17.58;50.73;100316.22;5035642;28;20048;-80
2023/05/13 07:21:23;;;;;;;10.77;6.85;;;;;;;17.65;50.66;100319.25;5053786;28;20088;-80
2023/05/13 07:23:49;;;;;;;7.57;6.28;;;;;;;17.71;50.89;100320.59;5053950;28;20049;-79
2023/05/13 07:26:16;;;;;;;10.30;6.47;;;;;;;17.77;50.69;100325.47;5053374;28;20484;-80
2023/05/13 07:28:42;;;;;;;10.38;6.50;;;;;;;17.84;50.77;100323.16;5053480;28;20491;-79
2023/05/13 07:31:09;;;;;;;8.05;5.43;;;;;;;17.91;50.46;100327.03;5053566;28;20140;-80
2023/05/13 07:33:35;;;;;;;9.35;6.53;;;;;;;17.98;50.53;100324.72;5053708;28;20056;-80
2023/05/13 07:36:02;;;;;;;8.60;5.90;;;;;;;18.04;50.60;100329.56;5053096;28;20057;-80
2023/05/13 07:38:29;;;;;;;7.95;6.32;;;;;;;18.13;50.81;100333.34;5053032;28;20041;-80
2023/05/13 07:40:55;;;;;;;9.23;5.78;;;;;;;18.21;50.46;100332.75;5053629;28;20052;-80
2023/05/13 07:43:26;;;;;;;6.53;5.35;;;;;;;18.29;50.55;100324.13;5053271;28;20490;-80
2023/05/13 07:45:53;;;;;;;7.40;5.82;;;;;;;18.39;49.75;100330.38;5053188;28;20138;-79
2023/05/13 07:48:19;;;;;;;6.65;5.85;;;;;;;18.48;50.01;100331.47;5052979;28;20132;-80
2023/05/13 07:50:46;;;;;;;10.20;5.82;;;;;;;18.55;49.79;100330.00;5035447;28;20060;-79
2023/05/13 07:53:13;;;;;;;6.07;5.47;;;;;;;18.64;49.94;100325.72;5053340;28;20052;-80
2023/05/13 07:55:40;;;;;;;9.13;6.22;;;;;;;18.71;49.61;100326.06;5052840;28;20258;-80
2023/05/13 07:58:06;;;;;;;6.05;5.45;;;;;;;18.79;49.29;100334.28;5052910;28;20056;-80
2023/05/13 08:00:33;;;;;;;7.65;5.65;;;;;;;18.87;49.67;100321.16;5052870;28;20056;-80
2023/05/13 08:02:59;;;;;;;10.23;5.85;;;;;;;18.96;49.87;100324.91;5052670;28;20057;-80
2023/05/13 08:05:26;;;;;;;11.35;5.85;;;;;;;19.06;49.59;100327.66;5052881;28;20056;-80
2023/05/13 08:07:52;;;;;;;7.95;5.65;;;;;;;19.16;49.72;100326.88;5052588;28;20085;-80
2023/05/13 08:10:20;;;;;;;6.80;6.00;;;;;;;19.24;49.69;100322.59;5052985;28;20095;-80
2023/05/13 08:12:51;;;;;;;12.25;6.18;;;;;;;19.35;49.18;100334.16;5035194;28;20053;-80
2023/05/13 08:15:17;;;;;;;9.35;5.97;;;;;;;19.44;49.57;100335.22;5052554;28;20479;-80
2023/05/13 08:17:44;;;;;;;11.60;6.93;;;;;;;19.53;49.66;100335.28;5052496;28;20072;-80
2023/05/13 08:20:11;;;;;;;7.28;6.15;;;;;;;19.64;49.09;100334.34;5052730;28;20056;-80
2023/05/13 08:22:37;;;;;;;7.50;6.15;;;;;;;19.74;49.09;100333.56;5052891;28;20049;-79
2023/05/13 08:25:04;;;;;;;8.95;6.30;;;;;;;19.83;49.17;100338.09;5052216;28;20048;-80
2023/05/13 08:27:31;;;;;;;7.53;6.07;;;;;;;19.93;48.46;100338.13;5052160;28;20507;-80
2023/05/13 08:29:57;;;;;;;10.40;6.32;;;;;;;20.02;48.67;100332.00;5052388;28;20070;-80
2023/05/13 08:32:24;;;;;;;8.75;6.20;;;;;;;20.12;48.06;100325.84;5055736;28;20053;-79
2023/05/13 08:34:50;;;;;;;6.90;6.05;;;;;;;20.21;48.05;100338.38;5052599;28;20052;-79
2023/05/13 08:37:17;;;;;;;7.63;6.38;;;;;;;20.29;47.79;100335.88;5051769;28;20498;-79
2023/05/13 08:39:44;;;;;;;6.65;5.95;;;;;;;20.38;48.09;100331.56;5050267;28;20052;-79
2023/05/13 08:42:13;;;;;;;10.05;5.93;;;;;;;20.48;48.29;100336.06;5032436;28;20438;-79
2023/05/13 08:44:42;;;;;;;9.13;6.32;;;;;;;20.57;48.02;100337.91;5032439;28;20508;-80
2023/05/13 08:47:42;;;;;;;10.23;5.82;;;;;;;20.64;48.53;100331.00;5031703;28;20064;-79
2023/05/13 08:50:11;;;;;;;10.40;6.60;;;;;;;20.79;47.86;100333.28;5032408;28;20053;-80
2023/05/13 08:52:38;;;;;;;8.60;5.93;;;;;;;20.88;48.20;100332.47;5014671;28;20132;-79
2023/05/13 08:55:07;;;;;;;12.90;6.28;;;;;;;20.95;48.00;100333.59;5031841;28;20144;-79
2023/05/13 08:57:33;;;;;;;6.15;5.55;;;;;;;21.04;47.45;100336.41;5014260;28;20097;-79
2023/05/13 09:00:00;;;;;;;6.63;5.93;;;;;;;21.12;47.74;100341.88;5031959;28;20049;-79
2023/05/13 09:02:26;;;;;;;8.48;5.45;;;;;;;21.21;47.62;100335.69;5044912;28;20122;-79
2023/05/13 09:04:54;;;;;;;8.73;5.70;;;;;;;21.30;47.65;100335.84;5051418;28;20503;-79
2023/05/13 09:07:21;;;;;;;7.60;5.75;;;;;;;21.38;47.29;100335.94;5051632;28;20048;-80
2023/05/13 09:09:48;;;;;;;9.07;6.00;;;;;;;21.47;47.92;100340.44;5050529;28;20052;-80
2023/05/13 09:12:57;;;;;;;8.45;6.05;;;;;;;21.54;47.17;100338.03;5052059;28;20061;-79
2023/05/13 09:15:25;;;;;;;7.75;5.70;;;;;;;21.70;46.90;100337.41;5040511;28;20397;-79
2023/05/13 09:18:10;;;;;;;8.00;5.60;;;;;;;21.78;47.31;100344.75;5051290;28;20060;-80
2023/05/13 09:20:37;;;;;;;7.80;5.18;;;;;;;21.92;47.62;100346.09;5051799;28;20045;-79
2023/05/13 09:23:09;;;;;;;8.23;5.40;;;;;;;22.00;46.39;100343.53;5051682;28;20052;-79
2023/05/13 09:25:37;;;;;;;12.98;5.13;;;;;;;22.11;46.76;100338.97;5051220;28;20056;-79
2023/05/13 09:28:06;;;;;;;7.38;5.70;;;;;;;22.20;46.47;100346.09;5051271;28;20075;-79
2023/05/13 09:30:39;;;;;;;6.20;5.00;;;;;;;22.30;46.03;100339.84;5050108;28;20049;-80
2023/05/13 09:33:08;;;;;;;5.35;4.85;;;;;;;22.37;46.08;100336.44;5050588;28;20055;-80
2023/05/13 09:35:36;;;;;;;6.03;4.72;;;;;;;22.47;46.31;100335.50;5051267;28;20110;-79
2023/05/13 09:38:13;;;;;;;7.40;5.03;;;;;;;22.54;46.48;100333.06;5049824;28;20041;-80
2023/05/13 09:40:40;;;;;;;6.75;5.28;;;;;;;22.68;46.84;100337.09;5050040;28;20527;-80
2023/05/13 09:43:07;;;;;;;8.65;5.07;;;;;;;22.77;45.68;100330.81;5033758;28;20056;-80
2023/05/13 09:45:35;;;;;;;8.23;4.93;;;;;;;22.86;46.63;100320.97;5050803;28;20059;-80
2023/05/13 09:48:01;;;;;;;7.10;4.47;;;;;;;22.95;46.60;100322.72;5050888;28;20052;-80
2023/05/13 09:50:30;;;;;;;7.95;4.57;;;;;;;23.04;45.57;100323.66;5050123;28;20492;-80
2023/05/13 09:52:56;;;;;;;5.75;4.13;;;;;;;23.15;45.08;100317.19;5050860;28;20553;-80
2023/05/13 09:55:23;;;;;;;5.15;4.35;;;;;;;23.23;44.86;100321.78;5050456;28;20139;-80
2023/05/13 09:57:52;;;;;;;10.27;4.65;;;;;;;23.29;45.30;100321.97;5050788;28;20087;-80
2023/05/13 10:00:18;;;;;;;6.07;4.05;;;;;;;23.38;44.43;100320.25;5051351;28;20053;-80
2023/05/13 10:03:00;;;;;;;5.45;4.25;;;;;;;23.49;44.73;100313.75;5051223;28;20053;-80
2023/05/13 10:05:26;;;;;;;7.50;4.13;;;;;;;23.59;44.87;100318.16;5050672;28;20409;-80
2023/05/13 10:07:54;;;;;;;7.65;4.32;;;;;;;23.67;43.91;100310.16;5050351;28;20045;-79
2023/05/13 10:10:21;;;;;;;11.60;4.72;;;;;;;23.75;43.82;100315.59;5050610;28;20080;-80
2023/05/13 10:12:49;;;;;;;6.53;4.07;;;;;;;23.84;43.43;100312.94;5050808;28;20413;-80
2023/05/13 10:15:17;;;;;;;10.20;4.63;;;;;;;23.92;43.26;100318.34;5050301;28;20501;-80
2023/05/13 10:17:45;;;;;;;6.40;3.80;;;;;;;24.01;43.87;100311.13;5050342;28;20083;-80
2023/05/13 10:20:13;;;;;;;9.55;4.63;;;;;;;24.07;43.35;100314.03;5050737;28;20049;-80
2023/05/13 10:22:40;;;;;;;5.05;3.47;;;;;;;24.17;43.26;100308.53;5050547;28;20111;-80
2023/05/13 10:25:08;;;;;;;9.25;3.42;;;;;;;24.26;42.76;100301.31;5049514;28;20139;-80
2023/05/13 10:27:34;;;;;;;5.10;3.75;;;;;;;24.33;42.73;100305.06;5048832;28;20045;-80
2023/05/13 10:30:04;;;;;;;7.32;3.58;;;;;;;24.42;42.33;100305.91;5050804;28;20052;-80
2023/05/13 10:32:31;;;;;;;4.75;3.50;;;;;;;24.50;41.71;100302.41;5048938;28;20171;-79
2023/05/13 10:35:16;;;;;;;5.15;3.55;;;;;;;24.54;41.48;100298.38;5049854;28;20516;-79
2023/05/13 10:38:01;;;;;;;5.72;3.42;;;;;;;24.63;41.82;100295.69;5048041;28;20084;-80
2023/05/13 10:40:43;;;;;;;4.45;3.28;;;;;;;24.71;42.25;100293.81;5030540;28;20053;-80
2023/05/13 10:43:31;;;;;;;6.00;3.20;;;;;;;24.83;41.85;100294.34;5012881;28;20136;-80
2023/05/13 10:46:05;;;;;;;4.32;3.13;;;;;;;25.03;41.17;100296.72;5030145;28;20106;-80
2023/05/13 10:48:42;;;;;;;4.95;2.88;;;;;;;25.27;40.89;100294.16;5029975;28;20145;-80
2023/05/13 10:51:13;;;;;;;6.05;2.88;;;;;;;25.61;40.74;100293.94;5030704;28;20473;-80
2023/05/13 10:53:46;;;;;;;5.40;2.65;;;;;;;26.06;40.52;100290.72;5030223;28;20068;-80
2023/05/13 10:56:14;;;;;;;3.78;2.42;;;;;;;26.59;40.74;100283.84;5030137;28;20057;-80
2023/05/13 10:58:41;;;;;;;4.63;2.40;;;;;;;27.12;39.97;100283.91;5030121;28;20136;-80
2023/05/13 11:01:15;;;;;;;4.50;2.53;;;;;;;27.65;38.47;100288.44;5030562;28;20056;-80
2023/05/13 11:03:50;;;;;;;4.88;2.45;;;;;;;28.22;38.22;100288.72;5030212;28;20045;-80
2023/05/13 11:06:23;;;;;;;5.22;2.40;;;;;;;28.78;37.90;100280.13;5029968;28;20419;-80
2023/05/13 11:08:51;;;;;;;3.25;2.42;;;;;;;29.32;37.32;100275.09;5012147;28;20052;-78
2023/05/13 11:11:27;;;;;;;4.60;2.87;;;;;;;29.83;35.37;100276.66;5030423;28;20537;-78
2023/05/13 11:13:54;;;;;;;;;;;;;;;30.25;38.55;100278.47;5013297;28;20316;-77
2023/05/13 11:16:24;;;;;;;5.93;2.70;;;;;;;30.75;34.89;100278.16;5029837;28;20296;-78
2023/05/13 11:18:51;;;;;;;2.80;2.20;;;;;;;31.13;34.19;100268.50;5029708;28;20136;-78
2023/05/13 11:21:29;;;;;;;2.90;2.05;;;;;;;31.41;33.09;100269.31;5030244;28;20045;-78
2023/05/13 11:23:57;;;;;;;3.28;1.95;;;;;;;31.74;32.98;100262.91;5012430;28;20049;-78
2023/05/13 11:26:24;;;;;;;3.22;2.00;;;;;;;32.02;32.67;100263.66;5029706;28;20049;-78
2023/05/13 11:28:56;;;;;;;4.57;2.30;;;;;;;32.23;30.75;100260.59;5012027;28;20049;-78
2023/05/13 11:31:24;;;;;;;5.75;2.22;;;;;;;32.44;31.35;100271.34;5030123;28;20133;-78